Holcombville, New York
Current Conditions -  °F | °C
As of 11:53 AM on Saturday 22 Nov 2014 (Local Time) from KGFL Reporting Station
Clear Clear  
Wind Chill: 19°   Ceiling: Unl
Heat Index: 30°   Visibility: 10mi
Dew Point: 12°   Wind: 15mph
Humidity: 47%   Direction: 190°S
Pressure: 30.21"   Gusts: NA
Location:  43.7289°N, 73.9027°W
Report Text: KGFL 221653Z AUTO 19013KT 10SM CLR M01/M11 A3021 RMK AO2 SLP242 T10111111
Loading
Personal Weather Stations






























Interactive Weather Map New forecast layout! Learn more

10-Day Weather Forecast

Advertisements
Track Severe Weather on mobile